Meteo Giornale » Osservazioni meteo Italia » Cagliari-Elmas

ore: 07:50 - Osservazioni Meteo Cagliari-Elmas
Lat. 39° 15' N Lon. 9° 4' E Alt. 4 metri s.l.m.

nebbia Europe/Rome

7 °C

Nebbia

Temp. 24 Ore

7 °C

20 °C

Nord-Ovest

13 Km/h

Dew point 7 °C

Umidità 100 %

Visibilità  0.1 Km

Il sole sorge alle ore 07:14

Il sole tramonta alle ore 17:05

Data e Ora Cielo e Fenomeni T °C DP °C Um. % Pres. hPa Vis. km Vento km/h
Oggi h: 07:50 nebbia Nebbia 7 7 100 1020 0.1 NO 13
Oggi h: 07:20 nebbia Nebbia 8 7 93 1020 0.2 NO 14.8
Oggi h: 06:50 nebbia Nebbia 8 7 93 1020 0.25 NO 13
Oggi h: 06:20 foschia Foschia 8 7 93 1020 4 NO 11.1
Oggi h: 05:50 foschia Foschia 8 8 100 1020 4 NO 11.1
Oggi h: 04:50 foschia Foschia 8 7 93 1020 4 NO 11.1
Oggi h: 04:20 sereno Sereno 8 7 93 1020 10 N/NO 11.1
Oggi h: 03:50 sereno Sereno 8 7 93 1021 10 N/NO 14.8
Oggi h: 03:20 sereno Sereno 8 8 100 1021 10 N/NO 13
Oggi h: 02:50 sereno Sereno 8 7 93 1021 10 N/NO 9.3
Oggi h: 02:20 sereno Sereno 9 8 93 1021 10 O/NO 7.4
Oggi h: 01:50 sereno Sereno 9 8 93 1021 10 NO 9.3
Oggi h: 01:20 sereno Sereno 10 9 93 1021 10 NO 9.3
Oggi h: 00:50 sereno Sereno 10 9 93 1021 10 NO 9.3
Oggi h: 00:20 sereno Sereno 10 9 93 1021 10 N/NO 7.4
Ieri h: 23:50 sereno Sereno 11 10 93 1021 10 N 5.5
Ieri h: 23:20 sereno Sereno 11 10 93 1021 10 N 5.5
Ieri h: 22:50 sereno Sereno 12 10 87 1021 10 N 11.1
Ieri h: 22:20 sereno Sereno 11 10 93 1021 10 N 9.3
Ieri h: 21:50 sereno Sereno 11 10 93 1021 10 N 9.3
Ieri h: 21:20 sereno Sereno 12 10 87 1021 10 N/NO 7.4
Ieri h: 20:50 sereno Sereno 12 10 87 1021 10 N/NO 9.3
Ieri h: 20:20 sereno Sereno 13 10 81 1021 10 N/NO 9.3
Ieri h: 19:50 sereno Sereno 13 10 81 1021 10 NO 11.1
Ieri h: 19:20 sereno Sereno 14 10 76 1021 10 NO 11.1
Ieri h: 18:50 sereno Sereno 14 10 76 1021 10 NO 11.1
Ieri h: 18:20 sereno Sereno 15 10 72 1021 10 NO 11.1
Ieri h: 17:50 sereno Sereno 16 10 67 1021 10 NO 13
Ieri h: 16:50 sereno Sereno 18 9 55 1020 10 N/NO 16.7
Ieri h: 16:20 sereno Sereno 19 9 52 1020 10 N/NO 18.5
Ieri h: 15:50 sereno Sereno 19 8 48 1020 10 N/NO 20.3
Ieri h: 15:20 sereno Sereno 20 8 45 1020 10 N/NO 18.5
Ieri h: 14:50 sereno Sereno 20 8 45 1020 10 N/NO 20.3
Ieri h: 14:20 sereno Sereno 20 7 42 1020 10 N/NO 22.2
Ieri h: 13:50 poco_nuvoloso Poco Nuvoloso 20 9 49 1020 10 N/NO 22.2
Ieri h: 13:20 sereno Sereno 20 8 45 1020 10 NO 16.7
Ieri h: 12:50 sereno Sereno 19 8 48 1020 10 N/NO 18.5
Ieri h: 12:20 sereno Sereno 19 8 48 1021 10 N/NO 16.7
Ieri h: 11:50 sereno Sereno 18 9 55 1021 10 N 16.7
Ieri h: 11:20 sereno Sereno 17 9 59 1021 10 N/NO 13
Ieri h: 10:50 sereno Sereno 16 10 67 1022 10 O/NO 9.3
Ieri h: 10:20 sereno Sereno 15 10 72 1022 10 O/NO 7.4
Ieri h: 09:50 sereno Sereno 13 10 81 1022 10 N 5.5
Ieri h: 09:20 sereno Sereno 10 8 87 1022 10 O/NO 7.4
Ieri h: 08:50 poco_nuvoloso Poco Nuvoloso 8 7 93 1022 10 NO 7.4
Ieri h: 08:20 nuvoloso Nuvoloso 7 6 93 1021 10 NO 11.1
Ieri h: 07:50 poco_nuvoloso Poco Nuvoloso 7 6 93 1021 10 NO 9.3